Terminal Aerodrome Forecast
Issued by NWS Nashville, TN

Home | Current Version | Previous Version | Text Only | Print | Product List | Glossary On
Versions: 1 2 3 4 5 6 7 8 9 10 11 12 13 14 15 16 17 18 19 20 21 22 23
000
FTUS44 KOHX 310500
TAFCSV
TAF
KCSV 310534Z 3106/0106 21004KT P6SM SCT009 SCT040 OVC100
     FM311000 19004KT 4SM -SHRA SCT009 OVC020
      TEMPO 3110/3114 2SM -SHRA BR BKN009 OVC020
     FM311500 19008KT 4SM -SHRA BR OVC015
      TEMPO 3115/3118 6SM -SHRA BR OVC025
     FM312200 22008G18KT P6SM OVC050
     FM010000 21003KT P6SM SCT100 BKN250
      TEMPO 0103/0106 4SM BR=

USA.gov is the U.S. government's official web portal to all federal, state and local government web resources and services.